Time;durP1;ratioP1;P1;durP2;ratioP2;P2;SDS_P1;SDS_P2;PMS_P1;PMS_P2;Temp;Humidity;BMP_temperature;BMP_pressure;BME280_temperature;BME280_humidity;BME280_pressure;Samples;Min_cycle;Max_cycle;Signal;HPM_P1;HPM_P2
2023/02/04 00:00:23;;;;;;;14.17;3.80;;;;;;;5.23;100.00;97337.47;6249573;23;20364;-91
2023/02/04 00:03:25;;;;;;;11.50;3.70;;;;;;;5.01;100.00;97332.81;6247926;23;20012;-90
2023/02/04 00:05:51;;;;;;;13.67;3.73;;;;;;;5.09;100.00;97338.34;6222268;23;20014;-91
2023/02/04 00:11:24;;;;;;;14.30;3.93;;;;;;;5.09;100.00;97320.09;6278427;22;20011;-91
2023/02/04 00:13:58;;;;;;;16.87;4.30;;;;;;;5.01;100.00;97324.97;6247892;22;20008;-91
2023/02/04 00:16:24;;;;;;;15.70;3.80;;;;;;;4.96;100.00;97320.91;6222382;23;20023;-90
2023/02/04 00:18:50;;;;;;;13.27;4.40;;;;;;;5.00;100.00;97320.69;6222489;23;20016;-91
2023/02/04 00:21:16;;;;;;;8.77;3.87;;;;;;;4.97;100.00;97317.34;6248262;22;20016;-91
2023/02/04 00:23:41;;;;;;;12.17;3.40;;;;;;;4.97;100.00;97317.34;6247792;22;20016;-90
2023/02/04 00:26:07;;;;;;;14.50;4.17;;;;;;;4.99;100.00;97326.84;6247199;22;20102;-90
2023/02/04 00:28:33;;;;;;;12.27;3.80;;;;;;;4.96;100.00;97333.06;6246843;23;20039;-91
2023/02/04 00:31:04;;;;;;;11.50;3.07;;;;;;;5.02;100.00;97330.09;6247084;23;20096;-90
2023/02/04 00:33:30;;;;;;;12.90;4.00;;;;;;;5.03;100.00;97341.34;6221856;23;20056;-90
2023/02/04 00:35:56;;;;;;;11.73;3.87;;;;;;;4.95;100.00;97329.63;6247397;23;20035;-90
2023/02/04 00:38:52;;;;;;;13.43;3.90;;;;;;;4.99;100.00;97324.22;6246753;22;20016;-90
2023/02/04 00:41:17;;;;;;;15.47;4.07;;;;;;;5.00;100.00;97331.09;6246815;23;20059;-90
2023/02/04 00:44:19;;;;;;;11.13;4.30;;;;;;;5.05;100.00;97332.50;6247088;22;20004;-90
2023/02/04 00:46:47;;;;;;;13.27;4.60;;;;;;;4.96;100.00;97333.06;6246745;23;20012;-90
2023/02/04 00:49:13;;;;;;;15.17;3.93;;;;;;;4.98;100.00;97339.03;6247252;23;20012;-90
2023/02/04 00:51:39;;;;;;;16.63;4.93;;;;;;;4.92;100.00;97334.22;6221872;23;20070;-90
2023/02/04 00:54:06;;;;;;;16.20;4.67;;;;;;;4.90;100.00;97346.53;6246338;23;20474;-89
2023/02/04 00:56:33;;;;;;;17.83;5.20;;;;;;;4.95;100.00;97352.28;6246536;22;20308;-90
2023/02/04 00:58:59;;;;;;;10.63;4.03;;;;;;;4.95;100.00;97355.72;6221639;23;20015;-90
2023/02/04 01:01:25;;;;;;;21.00;5.10;;;;;;;4.88;100.00;97358.81;6247228;23;20019;-90
2023/02/04 01:03:56;;;;;;;11.03;4.67;;;;;;;4.90;100.00;97349.13;6247939;23;20007;-90
2023/02/04 01:06:22;;;;;;;13.27;4.30;;;;;;;4.84;100.00;97352.94;6247082;23;20437;-90
2023/02/04 01:08:48;;;;;;;13.53;4.30;;;;;;;4.81;100.00;97360.97;6246830;22;20012;-90
2023/02/04 01:11:15;;;;;;;11.83;4.53;;;;;;;4.79;100.00;97359.38;6246913;23;20102;-90
2023/02/04 01:13:40;;;;;;;17.17;5.20;;;;;;;4.80;100.00;97363.69;6247244;23;20035;-90
2023/02/04 01:16:19;;;;;;;12.27;4.90;;;;;;;4.83;100.00;97364.31;6221003;23;20012;-90
2023/02/04 01:18:44;;;;;;;14.43;5.13;;;;;;;4.85;100.00;97375.47;6246315;23;20351;-90
2023/02/04 01:21:18;;;;;;;11.47;4.57;;;;;;;4.89;100.00;97382.16;6246593;23;20015;-90
2023/02/04 01:23:44;;;;;;;10.07;4.43;;;;;;;4.86;100.00;97377.16;6221168;23;20035;-90
2023/02/04 01:26:10;;;;;;;12.97;4.13;;;;;;;4.81;100.00;97379.19;6221441;23;20004;-90
2023/02/04 01:28:35;;;;;;;14.90;4.67;;;;;;;4.78;100.00;97374.19;6246780;23;20012;-90
2023/02/04 01:31:01;;;;;;;15.27;3.90;;;;;;;4.68;100.00;97366.09;6249451;23;20212;-90
2023/02/04 01:33:27;;;;;;;18.30;6.67;;;;;;;4.65;100.00;97360.22;6232127;23;20015;-90
2023/02/04 01:35:52;;;;;;;16.87;3.80;;;;;;;4.58;100.00;97351.97;6234829;23;20016;-90
2023/02/04 01:38:18;;;;;;;16.37;4.10;;;;;;;4.54;100.00;97349.66;6224590;23;20016;-90
2023/02/04 01:40:44;;;;;;;11.53;3.70;;;;;;;4.59;100.00;97355.41;6246771;23;20008;-89
2023/02/04 01:43:13;;;;;;;13.33;4.10;;;;;;;4.56;100.00;97360.78;6220515;23;20011;-89
2023/02/04 01:45:39;;;;;;;11.70;3.33;;;;;;;4.49;100.00;97358.59;6245911;23;20012;-91
2023/02/04 01:48:06;;;;;;;11.53;3.67;;;;;;;4.48;100.00;97374.28;6245644;23;20034;-90
2023/02/04 01:50:50;;;;;;;14.67;3.70;;;;;;;4.40;100.00;97366.13;6248491;23;19996;-90
2023/02/04 01:53:24;;;;;;;13.37;3.80;;;;;;;4.34;100.00;97377.75;6221164;23;20012;-90
2023/02/04 01:55:50;;;;;;;8.70;3.73;;;;;;;4.37;100.00;97385.38;6246466;23;20373;-90
2023/02/04 01:58:20;;;;;;;14.33;3.40;;;;;;;4.36;100.00;97382.84;6245421;23;20012;-90
2023/02/04 02:00:46;;;;;;;13.07;3.80;;;;;;;4.31;100.00;97387.50;6219733;23;20016;-89
2023/02/04 02:03:12;;;;;;;15.63;4.13;;;;;;;4.20;100.00;97383.78;6220195;23;20050;-90
2023/02/04 02:05:52;;;;;;;8.33;4.03;;;;;;;4.14;100.00;97384.13;6245654;23;20054;-90
2023/02/04 02:08:18;;;;;;;13.30;3.83;;;;;;;4.18;100.00;97384.78;6220249;23;20403;-90
2023/02/04 02:10:48;;;;;;;9.67;3.50;;;;;;;4.12;100.00;97393.78;6220181;23;20008;-90
2023/02/04 02:13:18;;;;;;;11.87;3.23;;;;;;;4.10;100.00;97398.28;6220472;23;20069;-90
2023/02/04 02:15:45;;;;;;;10.63;3.57;;;;;;;4.06;100.00;97401.13;6245434;23;20336;-90
2023/02/04 02:18:14;;;;;;;12.90;3.30;;;;;;;4.08;100.00;97412.31;6219828;23;20019;-90
2023/02/04 02:20:45;;;;;;;9.27;3.17;;;;;;;4.03;100.00;97414.34;6220043;23;20012;-90
2023/02/04 02:23:28;;;;;;;14.73;3.37;;;;;;;3.98;100.00;97415.44;6220557;23;20405;-90
2023/02/04 02:25:54;;;;;;;10.10;3.80;;;;;;;3.96;100.00;97427.72;6245592;23;20099;-90
2023/02/04 02:28:23;;;;;;;13.77;3.57;;;;;;;3.92;100.00;97423.63;6245364;23;20008;-90
2023/02/04 02:30:49;;;;;;;13.40;4.93;;;;;;;3.96;100.00;97427.72;6245475;23;20012;-90
2023/02/04 02:33:18;;;;;;;17.40;5.07;;;;;;;3.94;100.00;97428.72;6219912;23;20344;-90
2023/02/04 02:35:47;;;;;;;14.50;3.93;;;;;;;3.97;100.00;97437.19;6244558;23;20099;-90
2023/02/04 02:38:14;;;;;;;16.97;4.80;;;;;;;3.96;100.00;97445.94;6219234;23;20016;-90
2023/02/04 02:40:41;;;;;;;15.33;4.20;;;;;;;3.93;100.00;97453.91;6244958;23;20016;-89
2023/02/04 02:43:12;;;;;;;12.90;4.43;;;;;;;3.96;100.00;97458.94;6244565;23;20015;-89
2023/02/04 02:45:38;;;;;;;14.93;3.83;;;;;;;3.99;100.00;97469.19;6218730;23;20008;-90
2023/02/04 02:48:11;;;;;;;14.30;3.63;;;;;;;3.94;100.00;97481.59;6245067;23;20019;-89
2023/02/04 02:50:38;;;;;;;13.55;4.07;;;;;;;3.95;100.00;97488.47;6245104;23;20015;-91
2023/02/04 02:53:09;;;;;;;11.67;4.27;;;;;;;3.92;100.00;97478.28;6245122;22;20016;-90
2023/02/04 02:55:35;;;;;;;14.53;3.70;;;;;;;3.88;100.00;97470.72;6244850;23;20031;-90
2023/02/04 02:58:09;;;;;;;18.97;4.70;;;;;;;3.91;100.00;97478.34;6220264;23;20444;-90
2023/02/04 03:00:35;;;;;;;13.60;4.00;;;;;;;3.87;100.00;97482.06;6219522;23;20012;-90
2023/02/04 03:03:12;;;;;;;16.47;4.57;;;;;;;3.83;100.00;97481.38;6219843;23;20008;-90
2023/02/04 03:05:42;;;;;;;20.37;3.90;;;;;;;3.82;100.00;97478.84;6246125;23;20020;-90
2023/02/04 03:08:13;;;;;;;13.93;4.03;;;;;;;3.82;100.00;97482.28;6220604;23;20070;-90
2023/02/04 03:10:39;;;;;;;9.50;4.90;;;;;;;3.81;100.00;97492.81;6220497;23;20343;-90
2023/02/04 03:13:05;;;;;;;14.53;4.43;;;;;;;3.80;100.00;97499.78;6245027;23;20023;-90
2023/02/04 03:15:31;;;;;;;13.67;4.23;;;;;;;3.73;100.00;97503.66;6243987;23;20016;-90
2023/02/04 03:17:59;;;;;;;13.67;3.63;;;;;;;3.69;100.00;97502.13;6244011;23;20008;-91
2023/02/04 03:20:27;;;;;;;12.10;3.63;;;;;;;3.66;100.00;97497.13;6244060;23;20020;-90
2023/02/04 03:22:55;;;;;;;16.87;4.73;;;;;;;3.60;100.00;97515.66;6244590;23;20011;-90
2023/02/04 03:25:25;;;;;;;12.80;4.10;;;;;;;3.65;100.00;97516.22;6219300;23;20016;-90
2023/02/04 03:27:58;;;;;;;14.63;3.40;;;;;;;3.59;100.00;97529.56;6218974;23;20048;-90
2023/02/04 03:30:25;;;;;;;12.27;3.15;;;;;;;3.58;100.00;97528.72;6246078;23;20444;-91
2023/02/04 03:32:51;;;;;;;13.60;5.70;;;;;;;3.50;100.00;97526.56;6245880;23;20000;-90
2023/02/04 03:35:20;;;;;;;18.27;3.97;;;;;;;3.55;100.00;97531.50;6218567;23;20050;-90
2023/02/04 03:37:46;;;;;;;14.80;3.50;;;;;;;3.64;100.00;97538.81;6243901;23;20012;-90
2023/02/04 03:40:12;;;;;;;16.03;3.30;;;;;;;3.65;100.00;97544.84;6218251;23;20014;-90
2023/02/04 03:42:39;;;;;;;10.50;3.50;;;;;;;3.58;100.00;97543.50;6243888;23;20016;-91
2023/02/04 03:45:05;;;;;;;15.40;4.23;;;;;;;3.60;100.00;97549.47;6243851;23;20450;-90
2023/02/04 03:47:31;;;;;;;14.00;3.90;;;;;;;3.56;100.00;97548.81;6242378;22;20082;-90
2023/02/04 03:49:57;;;;;;;12.47;3.60;;;;;;;3.55;100.00;97549.72;6218389;23;20008;-90
2023/02/04 03:52:22;;;;;;;13.83;4.00;;;;;;;3.52;100.00;97548.13;6218333;23;20165;-91
2023/02/04 03:54:48;;;;;;;14.37;3.10;;;;;;;3.52;100.00;97542.06;6243772;23;20019;-90
2023/02/04 03:57:14;;;;;;;12.53;3.13;;;;;;;3.59;100.00;97543.44;6245321;22;20012;-90
2023/02/04 03:59:41;;;;;;;11.67;4.80;;;;;;;3.57;100.00;97539.25;6220379;23;20210;-90
2023/02/04 04:02:07;;;;;;;10.57;3.10;;;;;;;3.59;100.00;97543.44;6245637;23;20083;-90
2023/02/04 04:04:33;;;;;;;11.37;2.70;;;;;;;3.52;100.00;97535.13;6220182;23;20089;-90
2023/02/04 04:06:58;;;;;;;13.77;2.93;;;;;;;3.40;100.00;97538.38;6263998;23;20022;-90
2023/02/04 04:09:24;;;;;;;15.80;2.90;;;;;;;3.51;100.00;97551.63;6268164;23;20012;-90
2023/02/04 04:11:59;;;;;;;11.17;3.47;;;;;;;3.43;100.00;97547.78;6268077;23;20008;-90
2023/02/04 04:14:25;;;;;;;13.97;3.63;;;;;;;3.38;100.00;97545.41;6220568;23;20066;-90
2023/02/04 04:16:51;;;;;;;13.53;4.07;;;;;;;3.35;100.00;97552.53;6221015;23;20015;-89
2023/02/04 04:19:16;;;;;;;12.43;3.70;;;;;;;3.39;100.00;97549.72;6245652;23;20062;-90
2023/02/04 04:21:42;;;;;;;15.43;2.80;;;;;;;3.39;100.00;97547.13;6245313;23;20012;-90
2023/02/04 04:24:08;;;;;;;13.23;3.03;;;;;;;3.38;100.00;97557.59;6219650;23;20008;-90
2023/02/04 04:26:34;;;;;;;11.67;3.00;;;;;;;3.34;100.00;97550.88;6219308;23;20012;-90
2023/02/04 04:28:59;;;;;;;13.53;3.00;;;;;;;3.36;100.00;97564.66;6219705;23;20035;-91
2023/02/04 04:31:25;;;;;;;16.10;3.17;;;;;;;3.34;100.00;97561.28;6245095;23;20012;-90
2023/02/04 04:33:51;;;;;;;12.13;3.03;;;;;;;3.21;100.00;97564.53;6245155;23;20008;-90
2023/02/04 04:36:16;;;;;;;10.63;2.77;;;;;;;3.18;100.00;97574.25;6219792;23;20023;-90
2023/02/04 04:38:42;;;;;;;13.70;3.20;;;;;;;3.14;100.00;97575.31;6219786;23;20492;-90
2023/02/04 04:41:08;;;;;;;18.33;4.17;;;;;;;3.12;100.00;97579.75;6220319;23;20523;-90
2023/02/04 04:43:33;;;;;;;11.00;3.63;;;;;;;3.11;100.00;97584.13;6220980;23;20038;-91
2023/02/04 04:46:00;;;;;;;19.53;4.13;;;;;;;3.13;100.00;97582.28;6236852;22;20004;-90
2023/02/04 04:48:26;;;;;;;12.73;4.47;;;;;;;3.10;100.00;97586.81;6273169;22;20023;-90
2023/02/04 04:50:51;;;;;;;7.43;2.63;;;;;;;3.11;100.00;97588.47;6247641;22;20062;-90
2023/02/04 04:53:17;;;;;;;13.53;3.37;;;;;;;3.06;100.00;97584.38;6247120;22;20004;-90
2023/02/04 04:55:46;;;;;;;11.43;3.07;;;;;;;3.03;100.00;97592.31;6238795;23;20012;-90
2023/02/04 04:58:11;;;;;;;15.23;3.03;;;;;;;2.99;100.00;97582.19;6223160;23;20000;-90
2023/02/04 05:00:37;;;;;;;17.50;3.57;;;;;;;2.98;100.00;97589.09;6220468;23;20466;-90
2023/02/04 05:03:03;;;;;;;16.93;3.20;;;;;;;2.91;100.00;97594.72;6220066;23;20019;-90
2023/02/04 05:05:28;;;;;;;11.30;2.87;;;;;;;2.91;100.00;97598.13;6245209;23;20092;-90
2023/02/04 05:07:54;;;;;;;14.93;3.60;;;;;;;2.83;100.00;97595.09;6244493;22;20043;-90
2023/02/04 05:10:20;;;;;;;15.47;3.20;;;;;;;2.86;100.00;97600.16;6221669;23;20054;-90
2023/02/04 05:12:45;;;;;;;15.93;3.10;;;;;;;2.86;100.00;97605.34;6245204;23;20012;-90
2023/02/04 05:15:11;;;;;;;15.83;3.83;;;;;;;2.86;100.00;97605.34;6219771;23;20015;-90
2023/02/04 05:17:41;;;;;;;12.37;3.27;;;;;;;2.78;100.00;97612.66;6219610;23;20061;-90
2023/02/04 05:20:07;;;;;;;7.90;2.50;;;;;;;2.58;100.00;97611.94;6220017;23;20091;-90
2023/02/04 05:22:33;;;;;;;13.93;3.70;;;;;;;2.73;100.00;97614.66;6244639;23;20024;-90
2023/02/04 05:24:59;;;;;;;14.73;2.67;;;;;;;2.44;100.00;97609.16;6220179;23;20020;-90
2023/02/04 05:27:24;;;;;;;14.60;3.10;;;;;;;2.50;100.00;97608.84;6245202;23;20099;-90
2023/02/04 05:29:52;;;;;;;8.70;2.87;;;;;;;2.54;100.00;97600.00;6244643;23;20012;-90
2023/02/04 05:32:18;;;;;;;9.67;3.37;;;;;;;2.49;100.00;97604.59;6219549;23;20344;-90
2023/02/04 05:34:43;;;;;;;12.83;3.17;;;;;;;2.47;100.00;97598.63;6220035;23;20012;-91
2023/02/04 05:37:09;;;;;;;15.50;3.30;;;;;;;2.40;100.00;97602.44;6219041;23;20070;-90
2023/02/04 05:39:34;;;;;;;8.33;2.93;;;;;;;2.37;100.00;97592.19;6218659;23;20015;-90
2023/02/04 05:42:00;;;;;;;9.07;3.63;;;;;;;2.37;100.00;97600.00;6218902;23;20035;-90
2023/02/04 05:44:26;;;;;;;15.53;3.90;;;;;;;2.35;100.00;97609.63;6218788;23;20016;-90
2023/02/04 05:46:51;;;;;;;15.30;4.53;;;;;;;2.36;100.00;97606.09;6244512;22;20050;-90
2023/02/04 05:49:17;;;;;;;18.83;3.80;;;;;;;2.22;100.00;97608.53;6219442;23;20012;-90
2023/02/04 05:51:44;;;;;;;16.90;3.27;;;;;;;2.05;100.00;97607.59;6219214;23;20020;-90
2023/02/04 05:54:10;;;;;;;14.00;3.47;;;;;;;2.12;100.00;97619.34;6218661;23;20031;-90
2023/02/04 05:56:35;;;;;;;9.47;3.37;;;;;;;2.07;100.00;97620.47;6219248;23;20012;-90
2023/02/04 05:59:01;;;;;;;14.23;4.17;;;;;;;1.97;100.00;97625.25;6221646;23;20012;-90
2023/02/04 06:01:27;;;;;;;15.90;3.70;;;;;;;1.98;100.00;97633.88;6220044;23;20011;-90
2023/02/04 06:03:52;;;;;;;13.63;3.27;;;;;;;1.98;100.00;97649.44;6244375;22;20065;-90
2023/02/04 06:06:18;;;;;;;14.17;4.30;;;;;;;1.91;100.00;97648.03;6219022;23;20019;-90
2023/02/04 06:08:45;;;;;;;11.13;3.90;;;;;;;1.90;100.00;97655.00;6218789;23;20007;-90
2023/02/04 06:11:10;;;;;;;16.57;3.70;;;;;;;1.84;100.00;97663.06;6244088;22;20016;-90
2023/02/04 06:13:36;;;;;;;12.50;3.20;;;;;;;1.84;100.00;97663.06;6220482;23;20081;-90
2023/02/04 06:16:02;;;;;;;17.53;5.10;;;;;;;1.87;100.00;97676.72;6219203;23;20068;-90
2023/02/04 06:18:27;;;;;;;14.00;3.37;;;;;;;1.83;100.00;97684.72;6245006;23;20050;-90
2023/02/04 06:20:53;;;;;;;13.50;3.53;;;;;;;1.85;100.00;97677.72;6219885;23;20004;-90
2023/02/04 06:23:19;;;;;;;14.97;3.77;;;;;;;1.88;100.00;97681.00;6220330;23;20038;-90
2023/02/04 06:25:46;;;;;;;12.13;3.93;;;;;;;1.89;100.00;97700.00;6219486;23;20007;-90
2023/02/04 06:28:12;;;;;;;17.93;4.10;;;;;;;1.88;100.00;97709.56;6218712;23;20016;-90
2023/02/04 06:30:37;;;;;;;16.93;3.53;;;;;;;1.85;100.00;97698.47;6219516;23;20011;-90
2023/02/04 06:33:06;;;;;;;14.20;4.27;;;;;;;1.94;100.00;97700.63;6219465;23;20016;-90
2023/02/04 06:35:32;;;;;;;19.70;3.50;;;;;;;1.89;100.00;97706.03;6219272;23;20448;-90
2023/02/04 06:37:57;;;;;;;13.47;3.33;;;;;;;1.93;100.00;97711.09;6219528;23;20012;-90
2023/02/04 06:40:23;;;;;;;12.60;3.43;;;;;;;1.89;100.00;97700.00;6219226;23;20011;-90
2023/02/04 06:42:49;;;;;;;18.67;3.33;;;;;;;1.92;100.00;97710.25;6218874;23;20019;-90
2023/02/04 06:45:14;;;;;;;16.10;3.83;;;;;;;2.02;100.00;97706.31;6218598;23;20012;-90
2023/02/04 06:47:40;;;;;;;15.53;5.27;;;;;;;2.04;100.00;97706.25;6244589;23;20004;-90
2023/02/04 06:50:06;;;;;;;24.30;4.50;;;;;;;2.04;100.00;97698.47;6226261;23;20015;-90
2023/02/04 06:52:36;;;;;;;12.07;3.83;;;;;;;2.21;100.00;97705.47;6251235;22;20031;-90
2023/02/04 06:55:01;;;;;;;11.03;3.47;;;;;;;2.16;100.00;97715.22;6224707;23;20012;-90
2023/02/04 06:57:27;;;;;;;12.30;4.40;;;;;;;2.03;100.00;97708.00;6224466;23;20012;-90
2023/02/04 06:59:53;;;;;;;13.13;3.37;;;;;;;2.00;100.00;97715.09;6250297;23;20016;-91
2023/02/04 07:02:19;;;;;;;12.50;3.07;;;;;;;2.00;100.00;97709.91;6224821;23;20019;-90
2023/02/04 07:04:44;;;;;;;11.33;2.93;;;;;;;2.03;100.00;97715.78;6249081;23;20004;-90
2023/02/04 07:07:10;;;;;;;18.23;4.30;;;;;;;2.01;100.00;97712.44;6222782;23;20004;-90
2023/02/04 07:09:36;;;;;;;16.73;4.77;;;;;;;2.03;100.00;97713.19;6248910;22;20069;-90
2023/02/04 07:12:02;;;;;;;14.60;5.00;;;;;;;2.00;100.00;97717.69;6225599;23;20383;-91
2023/02/04 07:14:28;;;;;;;19.37;4.13;;;;;;;2.02;100.00;97721.91;6226753;23;20004;-91
2023/02/04 07:16:56;;;;;;;11.10;3.47;;;;;;;2.03;100.00;97728.75;6252112;23;20462;-90
2023/02/04 07:19:30;;;;;;;12.37;3.47;;;;;;;2.09;100.00;97727.66;6246339;23;20016;-91
2023/02/04 07:21:56;;;;;;;13.57;3.20;;;;;;;2.20;100.00;97729.75;6220868;23;20012;-91
2023/02/04 07:27:30;;;;;;;18.37;4.33;;;;;;;2.32;100.00;97734.38;6271072;22;20016;-92
2023/02/04 07:29:55;;;;;;;12.47;3.00;;;;;;;2.41;100.00;97739.13;6220251;23;20019;-91
2023/02/04 07:32:21;;;;;;;11.07;3.27;;;;;;;2.54;100.00;97745.41;6221994;23;20012;-91
2023/02/04 07:34:47;;;;;;;11.17;3.60;;;;;;;2.58;100.00;97746.97;6247574;23;20019;-90
2023/02/04 07:37:14;;;;;;;13.63;4.53;;;;;;;2.55;100.00;97751.47;6248547;23;20451;-90
2023/02/04 07:39:40;;;;;;;10.93;3.43;;;;;;;2.62;100.00;97749.44;6222709;23;20012;-90
2023/02/04 07:42:05;;;;;;;12.00;3.93;;;;;;;2.69;100.00;97759.44;6247627;23;20019;-90
2023/02/04 07:44:47;;;;;;;11.10;3.50;;;;;;;2.69;100.00;97763.81;6250952;22;20401;-90
2023/02/04 07:47:13;;;;;;;17.03;3.70;;;;;;;2.82;100.00;97776.13;6231429;23;20083;-90
2023/02/04 07:49:38;;;;;;;18.13;3.57;;;;;;;2.85;100.00;97780.34;6254539;23;20012;-90
2023/02/04 07:52:04;;;;;;;11.73;3.03;;;;;;;2.83;100.00;97783.00;6225554;23;20039;-91
2023/02/04 07:54:30;;;;;;;15.10;4.27;;;;;;;2.83;100.00;97796.00;6250234;22;20012;-90
2023/02/04 07:57:10;;;;;;;12.77;3.20;;;;;;;2.86;100.00;97792.41;6250018;22;20015;-91
2023/02/04 07:59:35;;;;;;;13.40;3.10;;;;;;;2.91;100.00;97799.97;6222185;23;20073;-91
2023/02/04 08:02:01;;;;;;;10.30;2.97;;;;;;;2.93;100.00;97799.00;6222948;23;20086;-91
2023/02/04 08:04:31;;;;;;;15.00;2.87;;;;;;;2.96;100.00;97798.84;6227266;23;20012;-90
2023/02/04 08:06:57;;;;;;;16.57;5.30;;;;;;;3.01;100.00;97803.81;6226508;23;20019;-91
2023/02/04 08:09:25;;;;;;;10.33;3.57;;;;;;;3.03;100.00;97800.22;6249445;23;20011;-91
2023/02/04 08:11:59;;;;;;;11.60;3.47;;;;;;;3.00;100.00;97800.38;6223550;23;20020;-91
2023/02/04 08:14:25;;;;;;;15.70;3.77;;;;;;;2.99;100.00;97803.06;6249069;23;20395;-90
2023/02/04 08:16:51;;;;;;;13.40;3.00;;;;;;;3.07;100.00;97801.75;6223192;23;20020;-91
2023/02/04 08:19:19;;;;;;;17.70;3.03;;;;;;;3.12;100.00;97808.50;6248111;23;20466;-91
2023/02/04 08:22:04;;;;;;;16.63;4.43;;;;;;;3.14;100.00;97812.72;6222849;23;20020;-91
2023/02/04 08:24:30;;;;;;;14.30;3.90;;;;;;;3.17;100.00;97811.72;6230074;23;20019;-91
2023/02/04 08:26:57;;;;;;;13.73;3.10;;;;;;;3.27;100.00;97813.78;6249250;22;20012;-90
2023/02/04 08:29:24;;;;;;;11.77;3.17;;;;;;;3.43;100.00;97813.03;6225858;23;20030;-90
2023/02/04 08:31:50;;;;;;;17.03;3.70;;;;;;;3.39;100.00;97821.94;6251831;23;20050;-90
2023/02/04 08:34:17;;;;;;;18.40;3.13;;;;;;;3.47;100.00;97820.59;6221927;23;20013;-90
2023/02/04 08:36:43;;;;;;;11.70;3.33;;;;;;;3.43;100.00;97816.47;6221546;23;20024;-90
2023/02/04 08:39:11;;;;;;;12.30;3.50;;;;;;;3.38;100.00;97821.06;6221346;23;20042;-90
2023/02/04 08:41:37;;;;;;;14.97;4.20;;;;;;;3.33;100.00;97833.47;6247442;23;20004;-90
2023/02/04 08:44:07;;;;;;;15.10;3.40;;;;;;;3.37;100.00;97839.34;6222564;23;20004;-91
2023/02/04 08:46:32;;;;;;;23.17;5.57;;;;;;;3.30;100.00;97851.81;6224177;23;20050;-90
2023/02/04 08:52:21;;;;;;;19.10;4.40;;;;;;;3.33;100.00;97854.25;6276220;22;20019;-89
2023/02/04 08:54:47;;;;;;;17.33;4.50;;;;;;;3.31;100.00;97854.31;6251228;23;20016;-89
2023/02/04 08:57:14;;;;;;;27.40;4.40;;;;;;;3.30;100.00;97862.22;6223920;23;20008;-88
2023/02/04 08:59:47;;;;;;;10.27;3.07;;;;;;;3.35;100.00;97865.41;6257261;22;20008;-90
2023/02/04 09:02:13;;;;;;;28.80;14.65;;;;;;;4.32;100.00;97865.75;6221462;23;20019;-90
2023/02/04 09:04:38;;;;;;;309.57;187.10;;;;;;;5.07;100.00;97872.97;6246643;23;20040;-88
2023/02/04 09:07:04;;;;;;;35.00;16.00;;;;;;;4.07;100.00;97871.41;6248088;23;20370;-90
2023/02/04 09:09:30;;;;;;;20.13;6.90;;;;;;;3.88;100.00;97872.31;6247397;23;20404;-90
2023/02/04 09:12:08;;;;;;;13.90;4.60;;;;;;;3.98;100.00;97873.53;6247119;22;20035;-90
2023/02/04 09:14:34;;;;;;;9.00;3.67;;;;;;;3.86;100.00;97878.53;6247063;22;20012;-90
2023/02/04 09:17:00;;;;;;;15.90;4.00;;;;;;;3.99;100.00;97890.00;6222210;23;20403;-90
2023/02/04 09:19:26;;;;;;;14.80;3.93;;;;;;;3.81;100.00;97888.34;6247474;23;20012;-90
2023/02/04 09:21:52;;;;;;;9.43;3.53;;;;;;;3.80;100.00;97887.50;6222121;23;20012;-90
2023/02/04 09:24:18;;;;;;;10.43;2.97;;;;;;;3.87;100.00;97885.44;6221638;23;20013;-90
2023/02/04 09:26:44;;;;;;;16.17;3.63;;;;;;;3.96;100.00;97880.59;6217703;23;20090;-90
2023/02/04 09:29:10;;;;;;;23.07;12.53;;;;;;;4.25;100.00;97883.44;6222338;23;20078;-91
2023/02/04 09:31:35;;;;;;;24.33;9.37;;;;;;;4.89;100.00;97884.41;6227194;23;20343;-92
2023/02/04 09:34:01;;;;;;;23.93;12.43;;;;;;;4.67;100.00;97875.16;6221622;23;20009;-89
2023/02/04 09:36:29;;;;;;;20.47;9.10;;;;;;;4.55;100.00;97869.75;6246300;23;20012;-89
2023/02/04 09:38:55;;;;;;;20.83;4.93;;;;;;;4.43;100.00;97874.69;6220553;23;20424;-89
2023/02/04 09:41:21;;;;;;;13.00;4.10;;;;;;;4.44;100.00;97876.38;6244527;23;20467;-89
2023/02/04 09:43:48;;;;;;;14.47;3.37;;;;;;;4.51;100.00;97881.25;6244388;23;20012;-89
2023/02/04 09:46:21;;;;;;;12.93;3.57;;;;;;;4.36;100.00;97883.75;6246007;23;20004;-89
2023/02/04 09:48:48;;;;;;;17.40;3.00;;;;;;;4.41;100.00;97892.16;6247682;23;20012;-89
2023/02/04 09:51:18;;;;;;;15.37;3.40;;;;;;;4.28;100.00;97904.13;6245395;23;20099;-90
2023/02/04 09:54:00;;;;;;;16.63;3.60;;;;;;;4.37;100.00;97895.84;6221178;23;20439;-90
2023/02/04 09:56:26;;;;;;;14.83;3.20;;;;;;;4.46;100.00;97903.19;6221029;23;20355;-90
2023/02/04 09:58:52;;;;;;;12.87;2.40;;;;;;;4.53;100.00;97901.09;6220181;23;20336;-90
2023/02/04 10:01:19;;;;;;;15.00;2.97;;;;;;;4.62;100.00;97903.19;6220478;23;20082;-90
2023/02/04 10:03:50;;;;;;;17.73;3.43;;;;;;;4.59;100.00;97905.97;6245542;23;20022;-90
2023/02/04 10:06:20;;;;;;;13.30;3.53;;;;;;;4.37;100.00;97906.28;6220472;23;20016;-90
2023/02/04 10:08:47;;;;;;;13.03;2.70;;;;;;;4.38;100.00;97907.94;6224437;23;20042;-89
2023/02/04 10:11:16;;;;;;;11.77;2.93;;;;;;;4.19;100.00;97913.28;6220815;23;20012;-90
2023/02/04 10:13:50;;;;;;;13.17;2.93;;;;;;;4.38;100.00;97909.72;6246325;23;20015;-90
2023/02/04 10:16:20;;;;;;;16.27;2.80;;;;;;;4.30;100.00;97910.13;6273185;22;20008;-89
2023/02/04 10:19:00;;;;;;;8.40;2.40;;;;;;;4.44;100.00;97905.03;6274100;22;20012;-90
2023/02/04 10:21:32;;;;;;;14.80;3.00;;;;;;;4.38;100.00;97905.34;6273950;22;20000;-89
2023/02/04 10:24:03;;;;;;;9.83;2.40;;;;;;;4.39;100.00;97909.66;6242084;22;20035;-90
2023/02/04 10:26:30;;;;;;;12.60;2.93;;;;;;;4.45;100.00;97911.91;6247420;23;20016;-90
2023/02/04 10:29:18;;;;;;;17.90;3.10;;;;;;;4.35;100.00;97920.28;6246637;23;20451;-90
2023/02/04 10:31:47;;;;;;;9.83;3.07;;;;;;;4.38;100.00;97914.91;6245746;23;20530;-90
2023/02/04 10:34:30;;;;;;;17.00;3.40;;;;;;;4.45;100.00;97913.66;6245015;23;20018;-89
2023/02/04 10:37:00;;;;;;;;;;;;;;;4.67;100.00;97918.63;6246476;22;20012;-89
2023/02/04 10:39:28;;;;;;;13.90;2.80;;;;;;;4.69;100.00;97911.53;6245994;22;19907;-90
2023/02/04 10:41:59;;;;;;;18.07;2.53;;;;;;;4.66;100.00;97909.97;6245402;22;20455;-90
2023/02/04 10:44:30;;;;;;;10.70;2.13;;;;;;;4.96;100.00;97904.00;6247036;22;20436;-90
2023/02/04 10:47:14;;;;;;;19.33;4.07;;;;;;;5.12;100.00;97893.56;6223915;23;20015;-89
2023/02/04 10:49:40;;;;;;;10.63;2.83;;;;;;;5.04;100.00;97894.00;6220108;23;20347;-89
2023/02/04 10:52:15;;;;;;;13.50;2.47;;;;;;;5.01;100.00;97888.13;6219869;23;20094;-90
2023/02/04 10:54:41;;;;;;;13.13;2.60;;;;;;;5.01;100.00;97888.13;6220340;23;20042;-89
2023/02/04 10:57:16;;;;;;;13.20;3.23;;;;;;;4.88;100.00;97896.59;6219895;23;20036;-89
2023/02/04 10:59:42;;;;;;;13.23;2.40;;;;;;;5.30;100.00;97887.34;6245318;23;20036;-90
2023/02/04 11:02:34;;;;;;;10.93;2.50;;;;;;;5.52;100.00;97893.97;6245301;23;20431;-89
2023/02/04 11:05:00;;;;;;;13.50;2.30;;;;;;;5.39;100.00;97888.59;6244457;23;20008;-89
2023/02/04 11:07:26;;;;;;;8.00;2.03;;;;;;;5.54;100.00;97890.34;6247266;23;20016;-90
2023/02/04 11:09:52;;;;;;;15.83;3.50;;;;;;;5.70;100.00;97884.22;6221436;23;20425;-89
2023/02/04 11:12:42;;;;;;;20.87;2.70;;;;;;;5.74;100.00;97878.75;6221740;23;20046;-90
2023/02/04 11:15:46;;;;;;;8.27;2.30;;;;;;;6.09;100.00;97881.09;6272238;22;20016;-90
2023/02/04 11:18:42;;;;;;;14.50;2.30;;;;;;;6.01;100.00;97875.50;6246860;23;20074;-90
2023/02/04 11:21:34;;;;;;;11.80;2.53;;;;;;;5.82;100.00;97889.59;6221239;23;20008;-90
2023/02/04 11:24:08;;;;;;;14.17;2.90;;;;;;;5.91;100.00;97877.78;6270341;22;20099;-89
2023/02/04 11:26:39;;;;;;;9.67;2.87;;;;;;;5.61;100.00;97886.44;6249736;23;20043;-90
2023/02/04 11:29:05;;;;;;;10.80;2.80;;;;;;;5.46;100.00;97884.69;6249253;22;20008;-89
2023/02/04 11:31:33;;;;;;;12.17;2.87;;;;;;;4.95;100.00;97892.72;6246731;23;20008;-89
2023/02/04 11:34:26;;;;;;;5.50;1.33;;;;;;;4.50;100.00;97898.66;6246571;23;20038;-89
2023/02/04 11:37:39;;;;;;;11.43;1.80;;;;;;;4.52;100.00;97898.56;6221320;23;20444;-89
2023/02/04 11:40:33;;;;;;;6.70;1.47;;;;;;;4.09;100.00;97908.59;6268061;22;20240;-89
2023/02/04 11:43:11;;;;;;;5.17;1.30;;;;;;;3.96;100.00;97909.22;6221272;23;20012;-89